WADD/DPS METAR and TAF weather

Enter ICAO airport designator
Station Type Date Time Source
WADD METAR 2022/01/29 00:30 UTC NOAA

WADD 290030Z 29009KT 9999 FEW017 29/25 Q1010 NOSIG


Station Type Date Time Source
WADD Decoded METAR 2022/01/29 00:30 UTC NOAA

Station name not available
Jan 28, 2022 - 07:30 PM EST / 2022.01.29 0030 UTC
Wind: from the WNW (290 degrees) at 10 MPH (9 KT):0
Visibility: greater than 7 mile(s):0
Sky conditions: mostly clear
Temperature: 84 F (29 C)
Dew Point: 77 F (25 C)
Relative Humidity: 79%
Pressure (altimeter): 29.83 in. Hg (1010 hPa)
ob: WADD 290030Z 29009KT 9999 FEW017 29/25 Q1010 NOSIG
cycle: 0

Station Type Date Time Source
WADD TAF 2022/01/28 22:27 UTC NOAA

TAF
AMD TAF
AMD WADD 282200Z 2822/2918 28010KT 9999 SCT016
TEMPO 2909/2913 5000 RA FEW014CB BKN014

Example: see airport list